Clayton, California
Current Conditions -  °F | °C
As of 10:53 AM on Friday 24 Oct 2014 (Local Time) from KCCR Reporting Station
Clear Clear  
Wind Chill: 66°   Ceiling: Unl
Heat Index: 66°   Visibility: 10mi
Dew Point: 52°   Wind: 3mph
Humidity: 60%   Direction: NA
Pressure: 29.97"   Gusts: NA
Location:  37.94°N, 121.93°W
Report Text: KCCR 241753Z VRB03KT 10SM CLR 19/11 A2997 RMK AO2 SLP134 T01890111 10189 20111 58003
Loading
Personal Weather Stations






























Interactive Weather Map
Tropical Storm Tracking
New forecast layout! Learn more

10-Day Weather Forecast

Advertisements
Track Severe Weather on mobile